CST8 weather

Montreal / Marina Venise Seaplane Base
Montréal, Quebec, Canada

Public forecast

Using degrees Celsius for public forecast. Weather courtesy of forecast.io.

METAR (pilot weather report)

Closest report is Montreal / Pierre Elliott Trudeau International Airport, 9.9 nm (18.3 km) S. Retrieved 2019/05/26 17:00 UTC (33 minutes ago):

CYUL 261700Z 25014G20KT 30SM SCT045 BKN075 OVC250 23/14 A2979 RMK CU3AC2CI3 SLP091 DENSITY ALT 1300FT

TAF (pilot weather forecast)

Closest forecast is Montreal / Pierre Elliott Trudeau International Airport, 9.9 nm (18.3 km) S. Retrieved 2019/05/26 15:42 UTC (2 hours ago):

TAF CYUL 261438Z 2615/2712 27008KT P6SM FEW010 BKN040 TEMPO 2615/2616 OVC010 BECMG 2616/2618 25015G25KT FM262000 27015G25KT P6SM SCT050 BECMG 2622/2624 30012KT BECMG 2704/2706 34010KT RMK NXT FCST BY 261800Z